sensor_id;sensor_type;location;lat;lon;timestamp;pressure;altitude;pressure_sealevel;temperature;humidity
53916;BME280;39827;49.652;18.770;2024-03-17T00:00:29;74458.50;;;-149.71;91.12
53916;BME280;39827;49.652;18.770;2024-03-17T00:02:55;74458.50;;;-149.71;90.81
53916;BME280;39827;49.652;18.770;2024-03-17T00:05:20;74452.47;;;-149.71;90.99
53916;BME280;39827;49.652;18.770;2024-03-17T00:07:46;74466.53;;;-149.71;91.10
53916;BME280;39827;49.652;18.770;2024-03-17T00:10:11;74474.59;;;-149.71;91.32
53916;BME280;39827;49.652;18.770;2024-03-17T00:12:37;74476.59;;;-149.71;91.39
53916;BME280;39827;49.652;18.770;2024-03-17T00:15:07;74478.59;;;-149.71;91.03
53916;BME280;39827;49.652;18.770;2024-03-17T00:17:33;74498.69;;;-149.71;91.35
53916;BME280;39827;49.652;18.770;2024-03-17T00:20:02;74502.72;;;-149.71;91.28
53916;BME280;39827;49.652;18.770;2024-03-17T00:22:35;74540.88;;;-149.71;91.11
53916;BME280;39827;49.652;18.770;2024-03-17T00:25:05;74591.13;;;-149.71;90.88
53916;BME280;39827;49.652;18.770;2024-03-17T00:27:30;74635.31;;;-149.71;89.91
53916;BME280;39827;49.652;18.770;2024-03-17T00:29:56;74659.44;;;-149.71;89.76
53916;BME280;39827;49.652;18.770;2024-03-17T00:32:21;74681.53;;;-149.71;89.50
53916;BME280;39827;49.652;18.770;2024-03-17T00:34:47;74703.66;;;-149.71;88.40
53916;BME280;39827;49.652;18.770;2024-03-17T00:37:12;74729.75;;;-149.71;87.81
53916;BME280;39827;49.652;18.770;2024-03-17T00:39:38;74731.78;;;-149.71;88.07
53916;BME280;39827;49.652;18.770;2024-03-17T00:42:03;74717.72;;;-149.71;88.29
53916;BME280;39827;49.652;18.770;2024-03-17T00:44:29;74719.72;;;-149.71;88.21
53916;BME280;39827;49.652;18.770;2024-03-17T00:46:54;74753.88;;;-149.71;88.86
53916;BME280;39827;49.652;18.770;2024-03-17T00:49:19;74743.84;;;-149.71;89.04
53916;BME280;39827;49.652;18.770;2024-03-17T00:51:45;74765.94;;;-149.71;89.26
53916;BME280;39827;49.652;18.770;2024-03-17T00:54:13;74771.97;;;-149.71;89.66
53916;BME280;39827;49.652;18.770;2024-03-17T00:56:38;74794.06;;;-149.71;89.02
53916;BME280;39827;49.652;18.770;2024-03-17T00:59:03;74794.06;;;-149.71;88.82
53916;BME280;39827;49.652;18.770;2024-03-17T01:01:29;74798.09;;;-149.71;88.88
53916;BME280;39827;49.652;18.770;2024-03-17T01:03:54;74814.16;;;-149.71;89.07
53916;BME280;39827;49.652;18.770;2024-03-17T01:06:20;74814.16;;;-149.71;89.05
53916;BME280;39827;49.652;18.770;2024-03-17T01:08:45;74814.16;;;-149.71;89.42
53916;BME280;39827;49.652;18.770;2024-03-17T01:11:15;74816.16;;;-149.71;89.55
53916;BME280;39827;49.652;18.770;2024-03-17T01:13:41;74824.22;;;-149.71;88.84
53916;BME280;39827;49.652;18.770;2024-03-17T01:16:08;74822.19;;;-149.71;88.91
53916;BME280;39827;49.652;18.770;2024-03-17T01:18:33;74816.16;;;-149.71;88.34
53916;BME280;39827;49.652;18.770;2024-03-17T01:21:00;74826.22;;;-149.71;88.04
53916;BME280;39827;49.652;18.770;2024-03-17T01:23:25;74824.22;;;-149.71;87.66
53916;BME280;39827;49.652;18.770;2024-03-17T01:25:50;74854.34;;;-149.71;87.96
53916;BME280;39827;49.652;18.770;2024-03-17T01:28:17;74838.28;;;-149.71;87.44
53916;BME280;39827;49.652;18.770;2024-03-17T01:30:42;74844.31;;;-149.71;87.17
53916;BME280;39827;49.652;18.770;2024-03-17T01:33:08;74852.34;;;-149.71;88.08
53916;BME280;39827;49.652;18.770;2024-03-17T01:35:34;74866.41;;;-149.71;88.16
53916;BME280;39827;49.652;18.770;2024-03-17T01:38:00;74868.41;;;-149.71;87.69
53916;BME280;39827;49.652;18.770;2024-03-17T01:40:25;74876.44;;;-149.71;88.35
53916;BME280;39827;49.652;18.770;2024-03-17T01:42:51;74878.47;;;-149.71;88.61
53916;BME280;39827;49.652;18.770;2024-03-17T01:45:30;74874.44;;;-149.71;88.20
53916;BME280;39827;49.652;18.770;2024-03-17T01:47:56;74878.47;;;-149.71;88.22
53916;BME280;39827;49.652;18.770;2024-03-17T01:50:26;74894.53;;;-149.71;88.60
53916;BME280;39827;49.652;18.770;2024-03-17T01:52:56;74898.56;;;-149.71;87.88
53916;BME280;39827;49.652;18.770;2024-03-17T01:55:22;74908.59;;;-149.71;88.69
53916;BME280;39827;49.652;18.770;2024-03-17T01:57:50;74884.50;;;-149.71;88.33
53916;BME280;39827;49.652;18.770;2024-03-17T02:00:15;74874.44;;;-149.71;88.60
53916;BME280;39827;49.652;18.770;2024-03-17T02:02:41;74886.50;;;-149.71;88.29
53916;BME280;39827;49.652;18.770;2024-03-17T02:05:07;74894.53;;;-149.71;88.12
53916;BME280;39827;49.652;18.770;2024-03-17T02:07:32;74894.53;;;-149.71;88.29
53916;BME280;39827;49.652;18.770;2024-03-17T02:09:57;74890.53;;;-149.71;88.30
53916;BME280;39827;49.652;18.770;2024-03-17T02:12:24;74888.50;;;-149.71;88.00
53916;BME280;39827;49.652;18.770;2024-03-17T02:14:50;74894.53;;;-149.71;87.93
53916;BME280;39827;49.652;18.770;2024-03-17T02:17:16;74884.50;;;-149.71;88.70
53916;BME280;39827;49.652;18.770;2024-03-17T02:19:43;74884.50;;;-149.71;88.46
53916;BME280;39827;49.652;18.770;2024-03-17T02:22:13;74880.47;;;-149.71;88.63
53916;BME280;39827;49.652;18.770;2024-03-17T02:24:38;74870.41;;;-149.71;88.31
53916;BME280;39827;49.652;18.770;2024-03-17T02:27:04;74858.38;;;-149.71;88.12
53916;BME280;39827;49.652;18.770;2024-03-17T02:29:29;74858.38;;;-149.71;88.26
53916;BME280;39827;49.652;18.770;2024-03-17T02:31:55;74854.34;;;-149.71;87.89
53916;BME280;39827;49.652;18.770;2024-03-17T02:34:20;74848.31;;;-149.71;88.07
53916;BME280;39827;49.652;18.770;2024-03-17T02:36:46;74848.31;;;-149.71;88.00
53916;BME280;39827;49.652;18.770;2024-03-17T02:39:12;74850.34;;;-149.71;88.32
53916;BME280;39827;49.652;18.770;2024-03-17T02:41:56;74858.38;;;-149.71;88.15
53916;BME280;39827;49.652;18.770;2024-03-17T02:44:21;74836.25;;;-149.71;87.75
53916;BME280;39827;49.652;18.770;2024-03-17T02:46:47;74838.28;;;-149.71;87.87
53916;BME280;39827;49.652;18.770;2024-03-17T02:49:13;74830.22;;;-149.71;87.23
53916;BME280;39827;49.652;18.770;2024-03-17T02:51:39;74816.16;;;-149.71;86.92
53916;BME280;39827;49.652;18.770;2024-03-17T02:54:05;74824.22;;;-149.71;86.89
53916;BME280;39827;49.652;18.770;2024-03-17T02:56:31;74824.22;;;-149.71;87.13
53916;BME280;39827;49.652;18.770;2024-03-17T02:58:57;74822.19;;;-149.71;86.73
53916;BME280;39827;49.652;18.770;2024-03-17T03:01:22;74820.19;;;-149.71;86.65
53916;BME280;39827;49.652;18.770;2024-03-17T03:03:48;74822.19;;;-149.71;86.94
53916;BME280;39827;49.652;18.770;2024-03-17T03:06:15;74822.19;;;-149.71;86.78
53916;BME280;39827;49.652;18.770;2024-03-17T03:08:43;74816.16;;;-149.71;86.67
53916;BME280;39827;49.652;18.770;2024-03-17T03:11:10;74812.16;;;-149.71;86.54
53916;BME280;39827;49.652;18.770;2024-03-17T03:13:41;74812.16;;;-149.71;86.33
53916;BME280;39827;49.652;18.770;2024-03-17T03:16:07;74812.16;;;-149.71;86.27
53916;BME280;39827;49.652;18.770;2024-03-17T03:18:34;74850.34;;;-149.71;86.95
53916;BME280;39827;49.652;18.770;2024-03-17T03:20:59;74822.19;;;-149.71;86.90
53916;BME280;39827;49.652;18.770;2024-03-17T03:23:25;74844.31;;;-149.71;86.89
53916;BME280;39827;49.652;18.770;2024-03-17T03:25:55;74834.25;;;-149.71;86.73
53916;BME280;39827;49.652;18.770;2024-03-17T03:28:22;74836.25;;;-149.71;86.47
53916;BME280;39827;49.652;18.770;2024-03-17T03:30:48;74830.22;;;-149.71;85.78
53916;BME280;39827;49.652;18.770;2024-03-17T03:33:13;74832.25;;;-149.71;85.96
53916;BME280;39827;49.652;18.770;2024-03-17T03:35:38;74838.28;;;-149.71;86.25
53916;BME280;39827;49.652;18.770;2024-03-17T03:38:05;74840.28;;;-149.71;86.41
53916;BME280;39827;49.652;18.770;2024-03-17T03:40:30;74850.34;;;-149.71;86.38
53916;BME280;39827;49.652;18.770;2024-03-17T03:42:56;74844.31;;;-149.71;85.61
53916;BME280;39827;49.652;18.770;2024-03-17T03:45:22;74830.22;;;-149.71;85.53
53916;BME280;39827;49.652;18.770;2024-03-17T03:47:49;74854.34;;;-149.71;85.71
53916;BME280;39827;49.652;18.770;2024-03-17T03:50:17;74862.38;;;-149.71;86.39
53916;BME280;39827;49.652;18.770;2024-03-17T03:52:42;74872.44;;;-149.71;86.80
53916;BME280;39827;49.652;18.770;2024-03-17T03:55:09;74868.41;;;-149.71;86.58
53916;BME280;39827;49.652;18.770;2024-03-17T03:57:40;74874.44;;;-149.71;86.53
53916;BME280;39827;49.652;18.770;2024-03-17T04:00:07;74886.50;;;-149.71;86.59
53916;BME280;39827;49.652;18.770;2024-03-17T04:02:39;74884.50;;;-149.71;86.85
53916;BME280;39827;49.652;18.770;2024-03-17T04:05:05;74890.53;;;-149.71;86.39
53916;BME280;39827;49.652;18.770;2024-03-17T04:07:31;74898.56;;;-149.71;86.07
53916;BME280;39827;49.652;18.770;2024-03-17T04:09:56;74892.53;;;-149.71;85.70
53916;BME280;39827;49.652;18.770;2024-03-17T04:12:23;74894.53;;;-149.71;85.79
53916;BME280;39827;49.652;18.770;2024-03-17T04:14:49;74896.53;;;-149.71;86.22
53916;BME280;39827;49.652;18.770;2024-03-17T04:17:19;74908.59;;;-149.71;86.30
53916;BME280;39827;49.652;18.770;2024-03-17T04:19:49;74898.56;;;-149.71;86.53
53916;BME280;39827;49.652;18.770;2024-03-17T04:22:15;74904.59;;;-149.71;86.30
53916;BME280;39827;49.652;18.770;2024-03-17T04:24:45;74916.63;;;-149.71;86.45
53916;BME280;39827;49.652;18.770;2024-03-17T04:27:11;74924.69;;;-149.71;86.79
53916;BME280;39827;49.652;18.770;2024-03-17T04:29:36;74928.69;;;-149.71;86.93
53916;BME280;39827;49.652;18.770;2024-03-17T04:32:02;74930.72;;;-149.71;85.52
53916;BME280;39827;49.652;18.770;2024-03-17T04:34:27;74948.78;;;-149.71;85.52
53916;BME280;39827;49.652;18.770;2024-03-17T04:36:53;74962.84;;;-149.71;85.92
53916;BME280;39827;49.652;18.770;2024-03-17T04:39:19;74956.84;;;-149.71;84.03
53916;BME280;39827;49.652;18.770;2024-03-17T04:41:45;74954.81;;;-149.71;83.73
53916;BME280;39827;49.652;18.770;2024-03-17T04:44:11;74958.84;;;-149.71;84.15
53916;BME280;39827;49.652;18.770;2024-03-17T04:46:36;74966.88;;;-149.71;84.68
53916;BME280;39827;49.652;18.770;2024-03-17T04:49:01;74980.94;;;-149.71;85.01
53916;BME280;39827;49.652;18.770;2024-03-17T04:51:29;74974.91;;;-149.71;83.60
53916;BME280;39827;49.652;18.770;2024-03-17T04:53:54;74970.91;;;-149.71;84.04
53916;BME280;39827;49.652;18.770;2024-03-17T04:56:20;74966.88;;;-149.71;84.33
53916;BME280;39827;49.652;18.770;2024-03-17T04:58:46;74974.91;;;-149.71;84.05
53916;BME280;39827;49.652;18.770;2024-03-17T05:01:11;74970.91;;;-149.71;83.73
53916;BME280;39827;49.652;18.770;2024-03-17T05:03:38;74991.00;;;-149.71;84.96
53916;BME280;39827;49.652;18.770;2024-03-17T05:06:04;74978.94;;;-149.71;85.27
53916;BME280;39827;49.652;18.770;2024-03-17T05:08:31;74968.88;;;-149.71;85.02
53916;BME280;39827;49.652;18.770;2024-03-17T05:11:00;74976.94;;;-149.71;84.92
53916;BME280;39827;49.652;18.770;2024-03-17T05:13:27;74978.94;;;-149.71;85.06
53916;BME280;39827;49.652;18.770;2024-03-17T05:15:53;74970.91;;;-149.71;85.01
53916;BME280;39827;49.652;18.770;2024-03-17T05:18:19;74978.94;;;-149.71;84.96
53916;BME280;39827;49.652;18.770;2024-03-17T05:20:45;75009.06;;;-149.71;85.07
53916;BME280;39827;49.652;18.770;2024-03-17T05:23:12;75019.13;;;-149.71;84.72
53916;BME280;39827;49.652;18.770;2024-03-17T05:25:39;75031.19;;;-149.71;84.63
53916;BME280;39827;49.652;18.770;2024-03-17T05:28:04;75037.22;;;-149.71;84.56
53916;BME280;39827;49.652;18.770;2024-03-17T05:30:30;75027.16;;;-149.71;84.31
53916;BME280;39827;49.652;18.770;2024-03-17T05:32:56;75021.13;;;-149.71;84.02
53916;BME280;39827;49.652;18.770;2024-03-17T05:35:21;75019.13;;;-149.71;83.52
53916;BME280;39827;49.652;18.770;2024-03-17T05:37:48;75025.16;;;-149.71;83.82
53916;BME280;39827;49.652;18.770;2024-03-17T05:40:14;75017.13;;;-149.71;83.75
53916;BME280;39827;49.652;18.770;2024-03-17T05:42:43;75023.16;;;-149.71;83.89
53916;BME280;39827;49.652;18.770;2024-03-17T05:45:09;75023.16;;;-149.71;83.97
53916;BME280;39827;49.652;18.770;2024-03-17T05:47:37;75031.19;;;-149.71;83.69
53916;BME280;39827;49.652;18.770;2024-03-17T05:50:04;75049.28;;;-149.71;83.58
53916;BME280;39827;49.652;18.770;2024-03-17T05:52:29;75059.31;;;-149.71;82.75
53916;BME280;39827;49.652;18.770;2024-03-17T05:54:55;75055.28;;;-149.71;82.46
53916;BME280;39827;49.652;18.770;2024-03-17T05:57:21;75077.41;;;-149.71;82.97
53916;BME280;39827;49.652;18.770;2024-03-17T05:59:48;75067.34;;;-149.71;83.15
53916;BME280;39827;49.652;18.770;2024-03-17T06:02:13;75067.34;;;-149.71;82.16
53916;BME280;39827;49.652;18.770;2024-03-17T06:04:40;75035.19;;;-149.71;82.11
53916;BME280;39827;49.652;18.770;2024-03-17T06:07:06;75011.09;;;-149.71;82.59
53916;BME280;39827;49.652;18.770;2024-03-17T06:09:31;74982.94;;;-149.71;82.18
53916;BME280;39827;49.652;18.770;2024-03-17T06:11:57;74960.84;;;-149.71;82.09
53916;BME280;39827;49.652;18.770;2024-03-17T06:14:22;74936.72;;;-149.71;82.13
53916;BME280;39827;49.652;18.770;2024-03-17T06:16:48;74918.66;;;-149.71;80.88
53916;BME280;39827;49.652;18.770;2024-03-17T06:19:14;74938.75;;;-149.71;79.60
53916;BME280;39827;49.652;18.770;2024-03-17T06:21:40;74976.94;;;-149.71;79.04
53916;BME280;39827;49.652;18.770;2024-03-17T06:24:06;74991.00;;;-149.71;80.05
53916;BME280;39827;49.652;18.770;2024-03-17T06:26:32;75003.06;;;-149.71;79.77
53916;BME280;39827;49.652;18.770;2024-03-17T06:29:02;75037.22;;;-149.71;79.64
53916;BME280;39827;49.652;18.770;2024-03-17T06:31:28;75049.28;;;-149.71;78.99
53916;BME280;39827;49.652;18.770;2024-03-17T06:33:53;75061.31;;;-149.71;78.97
53916;BME280;39827;49.652;18.770;2024-03-17T06:36:19;75051.28;;;-149.71;79.04
53916;BME280;39827;49.652;18.770;2024-03-17T06:38:44;74888.50;;;-149.71;76.47
53916;BME280;39827;49.652;18.770;2024-03-17T06:41:10;74880.47;;;-149.71;74.92
53916;BME280;39827;49.652;18.770;2024-03-17T06:43:35;74673.50;;;-149.71;69.65
53916;BME280;39827;49.652;18.770;2024-03-17T06:46:01;74621.25;;;-149.71;61.31
53916;BME280;39827;49.652;18.770;2024-03-17T06:48:28;74524.81;;;-149.71;56.74
53916;BME280;39827;49.652;18.770;2024-03-17T06:50:54;74661.44;;;-149.71;57.38
53916;BME280;39827;49.652;18.770;2024-03-17T06:53:23;74721.72;;;-149.71;60.35
53916;BME280;39827;49.652;18.770;2024-03-17T06:55:58;74773.97;;;-149.71;60.30
53916;BME280;39827;49.652;18.770;2024-03-17T06:58:24;74550.94;;;-149.71;55.25
53916;BME280;39827;49.652;18.770;2024-03-17T07:00:56;74366.09;;;-149.71;50.00
53916;BME280;39827;49.652;18.770;2024-03-17T07:03:29;74307.81;;;-149.71;48.58
53916;BME280;39827;49.652;18.770;2024-03-17T07:05:56;74275.66;;;-149.71;47.73
53916;BME280;39827;49.652;18.770;2024-03-17T07:08:23;74131.00;;;-149.71;44.16
53916;BME280;39827;49.652;18.770;2024-03-17T07:11:02;74404.25;;;-149.71;45.83
53916;BME280;39827;49.652;18.770;2024-03-17T07:13:36;74438.41;;;-149.71;46.22
53916;BME280;39827;49.652;18.770;2024-03-17T07:16:03;74518.78;;;-149.71;47.39
53916;BME280;39827;49.652;18.770;2024-03-17T07:18:31;74480.59;;;-149.71;48.38
53916;BME280;39827;49.652;18.770;2024-03-17T07:21:03;74311.84;;;-149.71;45.48
53916;BME280;39827;49.652;18.770;2024-03-17T07:23:30;74287.72;;;-149.71;45.25
53916;BME280;39827;49.652;18.770;2024-03-17T07:26:00;74237.50;;;-149.71;42.54
53916;BME280;39827;49.652;18.770;2024-03-17T07:28:26;74201.34;;;-149.71;42.24
53916;BME280;39827;49.652;18.770;2024-03-17T07:30:53;74102.88;;;-149.71;40.19
53916;BME280;39827;49.652;18.770;2024-03-17T07:33:20;74070.75;;;-149.71;39.59
53916;BME280;39827;49.652;18.770;2024-03-17T07:35:50;74038.59;;;-149.71;38.40
53916;BME280;39827;49.652;18.770;2024-03-17T07:38:16;74122.97;;;-149.71;39.08
53916;BME280;39827;49.652;18.770;2024-03-17T07:40:43;74042.63;;;-149.71;38.54
53916;BME280;39827;49.652;18.770;2024-03-17T07:43:08;74018.50;;;-149.71;38.68
53916;BME280;39827;49.652;18.770;2024-03-17T07:45:33;73962.25;;;-149.71;37.56
53916;BME280;39827;49.652;18.770;2024-03-17T07:47:59;74080.78;;;-149.71;37.69
53916;BME280;39827;49.652;18.770;2024-03-17T07:50:24;73980.34;;;-149.71;38.19
53916;BME280;39827;49.652;18.770;2024-03-17T07:52:50;73932.13;;;-149.71;36.31
53916;BME280;39827;49.652;18.770;2024-03-17T07:55:15;73797.53;;;-149.71;35.49
53916;BME280;39827;49.652;18.770;2024-03-17T07:57:41;73765.38;;;-149.71;32.83
53916;BME280;39827;49.652;18.770;2024-03-17T08:00:07;73781.47;;;-149.71;33.42
53916;BME280;39827;49.652;18.770;2024-03-17T08:02:44;73797.53;;;-149.71;33.57
53916;BME280;39827;49.652;18.770;2024-03-17T08:05:10;73727.22;;;-149.71;32.43
53916;BME280;39827;49.652;18.770;2024-03-17T08:07:35;73656.91;;;-149.71;32.78
53916;BME280;39827;49.652;18.770;2024-03-17T08:10:01;73590.63;;;-149.71;32.31
53916;BME280;39827;49.652;18.770;2024-03-17T08:12:29;73524.31;;;-149.71;32.03
53916;BME280;39827;49.652;18.770;2024-03-17T08:14:54;73632.78;;;-149.71;31.38
53916;BME280;39827;49.652;18.770;2024-03-17T08:17:20;73847.75;;;-149.71;32.36
53916;BME280;39827;49.652;18.770;2024-03-17T08:19:45;73753.31;;;-149.71;32.11
53916;BME280;39827;49.652;18.770;2024-03-17T08:22:11;73689.03;;;-149.71;30.76
53916;BME280;39827;49.652;18.770;2024-03-17T08:24:36;73650.88;;;-149.71;30.50
53916;BME280;39827;49.652;18.770;2024-03-17T08:27:02;73632.78;;;-149.71;30.13
53916;BME280;39827;49.652;18.770;2024-03-17T08:29:28;73602.66;;;-149.71;29.54
53916;BME280;39827;49.652;18.770;2024-03-17T08:31:53;73608.69;;;-149.71;30.24
53916;BME280;39827;49.652;18.770;2024-03-17T08:34:18;73592.63;;;-149.71;29.20
53916;BME280;39827;49.652;18.770;2024-03-17T08:36:44;73550.44;;;-149.71;29.73
53916;BME280;39827;49.652;18.770;2024-03-17T08:39:09;73530.34;;;-149.71;29.85
53916;BME280;39827;49.652;18.770;2024-03-17T08:41:36;73528.34;;;-149.71;28.44
53916;BME280;39827;49.652;18.770;2024-03-17T08:44:02;73554.47;;;-149.71;29.91
53916;BME280;39827;49.652;18.770;2024-03-17T08:46:27;73560.47;;;-149.71;28.73
53916;BME280;39827;49.652;18.770;2024-03-17T08:48:53;73522.31;;;-149.71;28.70
53916;BME280;39827;49.652;18.770;2024-03-17T08:51:18;73496.19;;;-149.71;28.94
53916;BME280;39827;49.652;18.770;2024-03-17T08:53:44;73492.19;;;-149.71;28.91
53916;BME280;39827;49.652;18.770;2024-03-17T08:56:10;73454.00;;;-149.71;29.19
53916;BME280;39827;49.652;18.770;2024-03-17T08:58:35;73413.84;;;-149.71;28.62
53916;BME280;39827;49.652;18.770;2024-03-17T09:01:07;73454.00;;;-149.71;28.91
53916;BME280;39827;49.652;18.770;2024-03-17T09:03:34;73693.06;;;-149.71;31.12
53916;BME280;39827;49.652;18.770;2024-03-17T09:06:00;73908.00;;;-149.71;32.18
53916;BME280;39827;49.652;18.770;2024-03-17T09:08:25;74066.72;;;-149.71;34.53
53916;BME280;39827;49.652;18.770;2024-03-17T09:10:53;74102.88;;;-149.71;35.98
53916;BME280;39827;49.652;18.770;2024-03-17T09:13:21;73867.84;;;-149.71;32.90
53916;BME280;39827;49.652;18.770;2024-03-17T09:18:17;73660.91;;;-149.71;30.25
53916;BME280;39827;49.652;18.770;2024-03-17T09:20:43;73558.47;;;-149.71;29.35
53916;BME280;39827;49.652;18.770;2024-03-17T09:23:08;73482.13;;;-149.71;29.36
53916;BME280;39827;49.652;18.770;2024-03-17T09:25:34;73413.84;;;-149.71;29.11
53916;BME280;39827;49.652;18.770;2024-03-17T09:27:59;73315.41;;;-149.71;28.55
53916;BME280;39827;49.652;18.770;2024-03-17T09:30:24;73355.59;;;-149.71;28.62
53916;BME280;39827;49.652;18.770;2024-03-17T09:32:50;73518.28;;;-149.71;28.28
53916;BME280;39827;49.652;18.770;2024-03-17T09:35:15;73805.56;;;-149.71;32.29
53916;BME280;39827;49.652;18.770;2024-03-17T09:37:41;73885.91;;;-149.71;33.60
53916;BME280;39827;49.652;18.770;2024-03-17T09:40:13;74030.56;;;-149.71;34.18
53916;BME280;39827;49.652;18.770;2024-03-17T09:42:41;74034.59;;;-149.71;32.90
53916;BME280;39827;49.652;18.770;2024-03-17T09:45:09;73749.31;;;-149.71;30.68
53916;BME280;39827;49.652;18.770;2024-03-17T09:47:36;73594.63;;;-149.71;30.14
53916;BME280;39827;49.652;18.770;2024-03-17T09:50:01;73538.38;;;-149.71;29.26
53916;BME280;39827;49.652;18.770;2024-03-17T09:52:27;73652.88;;;-149.71;30.04
53916;BME280;39827;49.652;18.770;2024-03-17T09:54:59;73942.16;;;-149.71;31.52
53916;BME280;39827;49.652;18.770;2024-03-17T09:57:26;73922.06;;;-149.71;33.62
53916;BME280;39827;49.652;18.770;2024-03-17T09:59:53;73926.09;;;-149.71;32.59
53916;BME280;39827;49.652;18.770;2024-03-17T10:02:22;73787.47;;;-149.71;32.63
53916;BME280;39827;49.652;18.770;2024-03-17T10:04:48;73857.78;;;-149.71;34.34
53916;BME280;39827;49.652;18.770;2024-03-17T10:07:13;73865.81;;;-149.71;33.38
53916;BME280;39827;49.652;18.770;2024-03-17T10:09:43;73695.06;;;-149.71;33.50
53916;BME280;39827;49.652;18.770;2024-03-17T10:12:28;73558.47;;;-149.71;33.53
53916;BME280;39827;49.652;18.770;2024-03-17T10:15:00;73610.69;;;-149.71;31.88
53916;BME280;39827;49.652;18.770;2024-03-17T10:17:29;73755.34;;;-149.71;31.84
53916;BME280;39827;49.652;18.770;2024-03-17T10:20:14;73883.91;;;-149.71;31.92
53916;BME280;39827;49.652;18.770;2024-03-17T10:23:05;73926.09;;;-149.71;31.45
53916;BME280;39827;49.652;18.770;2024-03-17T10:25:33;73779.44;;;-149.71;32.10
53916;BME280;39827;49.652;18.770;2024-03-17T10:28:00;73837.69;;;-149.71;31.39
53916;BME280;39827;49.652;18.770;2024-03-17T10:30:26;74010.47;;;-149.71;32.30
53916;BME280;39827;49.652;18.770;2024-03-17T10:33:03;74062.72;;;-149.71;33.87
53916;BME280;39827;49.652;18.770;2024-03-17T10:35:35;74129.00;;;-149.71;35.03
53916;BME280;39827;49.652;18.770;2024-03-17T10:38:06;74149.09;;;-149.71;34.82
53916;BME280;39827;49.652;18.770;2024-03-17T10:40:32;74076.78;;;-149.71;34.13
53916;BME280;39827;49.652;18.770;2024-03-17T10:43:00;74147.09;;;-149.71;34.32
53916;BME280;39827;49.652;18.770;2024-03-17T10:45:26;74092.84;;;-149.71;35.86
53916;BME280;39827;49.652;18.770;2024-03-17T10:47:59;73918.06;;;-149.71;34.22
53916;BME280;39827;49.652;18.770;2024-03-17T10:50:35;73827.66;;;-149.71;35.87
53916;BME280;39827;49.652;18.770;2024-03-17T10:53:03;73869.84;;;-149.71;33.08
53916;BME280;39827;49.652;18.770;2024-03-17T10:55:32;73908.00;;;-149.71;32.96
53916;BME280;39827;49.652;18.770;2024-03-17T10:58:13;73741.28;;;-149.71;32.22
53916;BME280;39827;49.652;18.770;2024-03-17T11:00:42;73660.91;;;-149.71;30.95
53916;BME280;39827;49.652;18.770;2024-03-17T11:03:09;73839.72;;;-149.71;30.88
53916;BME280;39827;49.652;18.770;2024-03-17T11:05:36;73962.25;;;-149.71;32.37
53916;BME280;39827;49.652;18.770;2024-03-17T11:08:03;73954.22;;;-149.71;32.91
53916;BME280;39827;49.652;18.770;2024-03-17T11:10:31;73817.63;;;-149.71;32.38
53916;BME280;39827;49.652;18.770;2024-03-17T11:12:58;73664.94;;;-149.71;30.08
53916;BME280;39827;49.652;18.770;2024-03-17T11:20:35;73594.63;;;-149.71;29.49
53916;BME280;39827;49.652;18.770;2024-03-17T11:23:01;73516.28;;;-149.71;29.02
53916;BME280;39827;49.652;18.770;2024-03-17T11:27:58;73437.94;;;-149.71;28.42
53916;BME280;39827;49.652;18.770;2024-03-17T11:39:09;73319.44;;;-149.71;27.36
53916;BME280;39827;49.652;18.770;2024-03-17T11:41:51;73299.34;;;-149.71;27.54
53916;BME280;39827;49.652;18.770;2024-03-17T11:49:29;73287.28;;;-149.71;29.49
53916;BME280;39827;49.652;18.770;2024-03-17T11:51:56;73206.94;;;-149.71;29.56
53916;BME280;39827;49.652;18.770;2024-03-17T11:54:23;73217.00;;;-149.71;28.94
53916;BME280;39827;49.652;18.770;2024-03-17T11:56:51;73219.00;;;-149.71;29.52
53916;BME280;39827;49.652;18.770;2024-03-17T11:59:22;73160.75;;;-149.71;28.23
53916;BME280;39827;49.652;18.770;2024-03-17T12:01:49;73311.41;;;-149.71;27.85
53916;BME280;39827;49.652;18.770;2024-03-17T12:04:16;73484.16;;;-149.71;28.41
53916;BME280;39827;49.652;18.770;2024-03-17T12:06:46;73524.31;;;-149.71;28.77
53916;BME280;39827;49.652;18.770;2024-03-17T12:11:43;73572.53;;;-149.71;28.96
53916;BME280;39827;49.652;18.770;2024-03-17T12:14:21;73564.50;;;-149.71;30.60
53916;BME280;39827;49.652;18.770;2024-03-17T12:16:52;73427.91;;;-149.71;30.15
53916;BME280;39827;49.652;18.770;2024-03-17T12:19:18;73419.88;;;-149.71;29.24
53916;BME280;39827;49.652;18.770;2024-03-17T12:21:48;73341.53;;;-149.71;28.88
53916;BME280;39827;49.652;18.770;2024-03-17T12:24:35;73289.31;;;-149.71;28.67
53916;BME280;39827;49.652;18.770;2024-03-17T12:27:05;73247.13;;;-149.71;30.42
53916;BME280;39827;49.652;18.770;2024-03-17T12:29:38;73285.28;;;-149.71;28.84
53916;BME280;39827;49.652;18.770;2024-03-17T12:32:16;73357.59;;;-149.71;28.00
53916;BME280;39827;49.652;18.770;2024-03-17T12:34:43;73363.63;;;-149.71;27.74
53916;BME280;39827;49.652;18.770;2024-03-17T12:37:17;73353.59;;;-149.71;27.44
53916;BME280;39827;49.652;18.770;2024-03-17T12:39:43;73439.97;;;-149.71;28.39
53916;BME280;39827;49.652;18.770;2024-03-17T12:42:28;73518.28;;;-149.71;29.29
53916;BME280;39827;49.652;18.770;2024-03-17T12:44:57;73546.41;;;-149.71;30.11
53916;BME280;39827;49.652;18.770;2024-03-17T12:47:24;73492.19;;;-149.71;29.08
53916;BME280;39827;49.652;18.770;2024-03-17T12:52:28;73739.28;;;-149.71;31.29
53916;BME280;39827;49.652;18.770;2024-03-17T12:55:04;73847.75;;;-149.71;33.66
53916;BME280;39827;49.652;18.770;2024-03-17T13:00:46;73765.38;;;-149.71;33.10
53916;BME280;39827;49.652;18.770;2024-03-17T13:03:24;73731.22;;;-149.71;32.72